createdAt,value
2018-08-11T00:00:35.519Z,863.20
2018-08-11T00:01:35.393Z,863.21
2018-08-11T00:02:35.269Z,863.20
2018-08-11T00:03:35.146Z,863.17
2018-08-11T00:04:35.020Z,863.15
2018-08-11T00:05:34.898Z,863.14
2018-08-11T00:06:34.772Z,863.13
2018-08-11T00:07:34.655Z,863.11
2018-08-11T00:08:34.527Z,863.12
2018-08-11T00:09:34.398Z,863.09
2018-08-11T00:10:34.275Z,863.13
2018-08-11T00:11:34.149Z,863.09
2018-08-11T00:12:34.031Z,863.13
2018-08-11T00:13:33.902Z,863.10
2018-08-11T00:14:33.778Z,863.10
2018-08-11T00:15:33.651Z,863.09
2018-08-11T00:16:33.527Z,863.08
2018-08-11T00:17:33.403Z,863.07
2018-08-11T00:18:33.281Z,863.04
2018-08-11T00:19:33.154Z,863.01
2018-08-11T00:20:33.029Z,863.06
2018-08-11T00:21:32.907Z,863.04
2018-08-11T00:22:32.782Z,863.06
2018-08-11T00:23:32.657Z,863.07
2018-08-11T00:24:32.534Z,863.08
2018-08-11T00:25:32.414Z,863.08
2018-08-11T00:26:32.282Z,863.04
2018-08-11T00:27:32.159Z,863.04
2018-08-11T00:28:32.035Z,863.02
2018-08-11T00:29:31.910Z,863.04
2018-08-11T00:30:31.786Z,863.07
2018-08-11T00:31:31.660Z,863.09
2018-08-11T00:32:31.539Z,863.05
2018-08-11T00:33:31.414Z,863.05
2018-08-11T00:34:31.288Z,863.06
2018-08-11T00:35:31.161Z,863.04
2018-08-11T00:36:31.085Z,863.06
2018-08-11T00:37:30.913Z,863.06
2018-08-11T00:38:30.791Z,863.07
2018-08-11T00:39:30.664Z,863.05
2018-08-11T00:40:30.539Z,863.09
2018-08-11T00:41:30.419Z,863.05
2018-08-11T00:42:30.292Z,863.05
2018-08-11T00:43:30.165Z,863.04
2018-08-11T00:44:30.043Z,863.05
2018-08-11T00:45:29.916Z,863.06
2018-08-11T00:46:29.795Z,863.05
2018-08-11T00:47:29.670Z,863.00
2018-08-11T00:48:29.543Z,863.03
2018-08-11T00:49:29.478Z,863.01
2018-08-11T00:50:29.296Z,862.99
2018-08-11T00:51:29.171Z,862.97
2018-08-11T00:52:29.045Z,862.96
2018-08-11T00:53:28.923Z,862.95
2018-08-11T00:54:28.798Z,862.95
2018-08-11T00:55:28.673Z,862.95
2018-08-11T00:56:28.547Z,862.91
2018-08-11T00:57:28.426Z,862.93
2018-08-11T00:58:28.301Z,862.92
2018-08-11T00:59:28.176Z,862.91
2018-08-11T01:00:28.054Z,862.86
2018-08-11T01:01:27.926Z,862.84
2018-08-11T01:02:27.872Z,862.88
2018-08-11T01:03:27.677Z,862.85
2018-08-11T01:04:27.554Z,862.83
2018-08-11T01:05:27.430Z,862.83
2018-08-11T01:06:27.310Z,862.82
2018-08-11T01:07:27.183Z,862.79
2018-08-11T01:08:27.064Z,862.77
2018-08-11T01:09:26.932Z,862.74
2018-08-11T01:10:26.813Z,862.74
2018-08-11T01:11:26.684Z,862.75
2018-08-11T01:12:26.558Z,862.74
2018-08-11T01:13:26.436Z,862.75
2018-08-11T01:14:26.313Z,862.70
2018-08-11T01:15:26.192Z,862.69
2018-08-11T01:16:26.067Z,862.71
2018-08-11T01:17:25.937Z,862.71
2018-08-11T01:18:25.812Z,862.69
2018-08-11T01:19:25.687Z,862.76
2018-08-11T01:20:25.563Z,862.74
2018-08-11T01:21:25.438Z,862.73
2018-08-11T01:22:25.326Z,862.69
2018-08-11T01:23:25.189Z,862.71
2018-08-11T01:24:25.066Z,862.72
2018-08-11T01:25:24.944Z,862.71
2018-08-11T01:26:24.820Z,862.70
2018-08-11T01:27:24.695Z,862.72
2018-08-11T01:28:24.567Z,862.72
2018-08-11T01:29:24.443Z,862.74
2018-08-11T01:30:24.318Z,862.71
2018-08-11T01:31:24.192Z,862.75
2018-08-11T01:32:24.072Z,862.75
2018-08-11T01:33:23.945Z,862.71
2018-08-11T01:34:23.828Z,862.72
2018-08-11T01:35:23.696Z,862.72
2018-08-11T01:36:23.573Z,862.74
2018-08-11T01:37:23.448Z,862.70
2018-08-11T01:38:23.330Z,862.70
2018-08-11T01:39:23.195Z,862.74
2018-08-11T01:40:23.072Z,862.76
2018-08-11T01:41:22.949Z,862.70
2018-08-11T01:42:22.827Z,862.75
2018-08-11T01:43:22.698Z,862.73
2018-08-11T01:44:22.590Z,862.72
2018-08-11T01:45:22.451Z,862.71
2018-08-11T01:46:22.323Z,862.69
2018-08-11T01:47:22.199Z,862.67
2018-08-11T01:48:22.075Z,862.65
2018-08-11T01:49:21.948Z,862.64
2018-08-11T01:50:21.826Z,862.64
2018-08-11T01:51:21.704Z,862.64
2018-08-11T01:52:21.577Z,862.65
2018-08-11T01:53:21.452Z,862.63
2018-08-11T01:54:21.336Z,862.62
2018-08-11T01:55:21.200Z,862.65
2018-08-11T01:56:21.075Z,862.62
2018-08-11T01:57:20.950Z,862.62
2018-08-11T01:58:20.827Z,862.65
2018-08-11T01:59:20.703Z,862.63
2018-08-11T02:00:20.578Z,862.61
2018-08-11T02:01:20.456Z,862.63
2018-08-11T02:02:20.327Z,862.60
2018-08-11T02:03:20.203Z,862.63
2018-08-11T02:04:20.081Z,862.62
2018-08-11T02:05:19.955Z,862.62
2018-08-11T02:06:19.831Z,862.61
2018-08-11T02:07:19.706Z,862.65
2018-08-11T02:08:19.588Z,862.66
2018-08-11T02:09:19.457Z,862.64
2018-08-11T02:10:19.332Z,862.63
2018-08-11T02:11:19.236Z,862.62
2018-08-11T02:12:19.102Z,862.61
2018-08-11T02:13:18.958Z,862.64
2018-08-11T02:14:18.838Z,862.64
2018-08-11T02:15:18.707Z,862.66
2018-08-11T02:16:18.582Z,862.66
2018-08-11T02:17:18.458Z,862.67
2018-08-11T02:18:18.334Z,862.70
2018-08-11T02:19:18.222Z,862.69
2018-08-11T02:20:18.088Z,862.71
2018-08-11T02:21:17.963Z,862.70
2018-08-11T02:22:17.835Z,862.65
2018-08-11T02:23:17.712Z,862.67
2018-08-11T02:24:17.599Z,862.66
2018-08-11T02:25:17.462Z,862.66
2018-08-11T02:26:17.338Z,862.66
2018-08-11T02:27:17.212Z,862.70
2018-08-11T02:28:17.093Z,862.66
2018-08-11T02:29:16.965Z,862.65
2018-08-11T02:30:16.845Z,862.67
2018-08-11T02:31:16.717Z,862.68
2018-08-11T02:32:16.595Z,862.65
2018-08-11T02:33:16.470Z,862.69
2018-08-11T02:34:16.377Z,862.67
2018-08-11T02:35:16.226Z,862.67
2018-08-11T02:36:16.095Z,862.64
2018-08-11T02:37:15.972Z,862.66
2018-08-11T02:38:15.846Z,862.64
2018-08-11T02:39:15.725Z,862.61
2018-08-11T02:40:15.600Z,862.65
2018-08-11T02:41:15.474Z,862.61
2018-08-11T02:42:15.353Z,862.61
2018-08-11T02:43:15.225Z,862.61
2018-08-11T02:44:15.100Z,862.61
2018-08-11T02:45:14.977Z,862.64
2018-08-11T02:46:14.852Z,862.61
2018-08-11T02:47:14.727Z,862.63
2018-08-11T02:48:14.602Z,862.61
2018-08-11T02:49:14.481Z,862.61
2018-08-11T02:50:14.357Z,862.59
2018-08-11T02:51:14.232Z,862.62
2018-08-11T02:52:14.106Z,862.62
2018-08-11T02:53:13.987Z,862.60
2018-08-11T02:54:13.862Z,862.59
2018-08-11T02:55:13.749Z,862.63
2018-08-11T02:56:13.610Z,862.63
2018-08-11T02:57:13.488Z,862.62
2018-08-11T02:58:13.364Z,862.61
2018-08-11T02:59:13.246Z,862.59
2018-08-11T03:00:13.114Z,862.60
2018-08-11T03:01:12.991Z,862.58
2018-08-11T03:02:12.867Z,862.60
2018-08-11T03:03:12.741Z,862.57
2018-08-11T03:04:12.619Z,862.59
2018-08-11T03:05:12.497Z,862.57
2018-08-11T03:06:12.374Z,862.58
2018-08-11T03:07:12.246Z,862.55
2018-08-11T03:08:12.122Z,862.53
2018-08-11T03:09:12.003Z,862.57
2018-08-11T03:10:11.874Z,862.56
2018-08-11T03:11:11.793Z,862.57
2018-08-11T03:12:11.626Z,862.55
2018-08-11T03:13:11.507Z,862.56
2018-08-11T03:14:11.468Z,862.55
2018-08-11T03:15:11.261Z,862.53
2018-08-11T03:16:11.130Z,862.54
2018-08-11T03:17:11.016Z,862.56
2018-08-11T03:18:10.886Z,862.54
2018-08-11T03:19:10.758Z,862.55
2018-08-11T03:20:10.638Z,862.58
2018-08-11T03:21:10.511Z,862.61
2018-08-11T03:22:10.386Z,862.64
2018-08-11T03:23:10.261Z,862.64
2018-08-11T03:24:10.142Z,862.67
2018-08-11T03:25:10.014Z,862.65
2018-08-11T03:26:09.893Z,862.69
2018-08-11T03:27:09.765Z,862.65
2018-08-11T03:28:09.642Z,862.65
2018-08-11T03:29:09.517Z,862.67
2018-08-11T03:30:09.420Z,862.64
2018-08-11T03:31:09.272Z,862.65
2018-08-11T03:32:09.148Z,862.68
2018-08-11T03:33:09.022Z,862.64
2018-08-11T03:34:08.900Z,862.66
2018-08-11T03:35:08.775Z,862.67
2018-08-11T03:36:08.655Z,862.65
2018-08-11T03:37:08.526Z,862.64
2018-08-11T03:38:08.405Z,862.68
2018-08-11T03:39:08.280Z,862.70
2018-08-11T03:40:08.153Z,862.68
2018-08-11T03:41:08.031Z,862.67
2018-08-11T03:42:07.908Z,862.68
2018-08-11T03:43:07.782Z,862.66
2018-08-11T03:44:07.660Z,862.70
2018-08-11T03:45:07.537Z,862.66
2018-08-11T03:46:07.451Z,862.69
2018-08-11T03:47:07.290Z,862.68
2018-08-11T03:48:07.164Z,862.70
2018-08-11T03:49:07.041Z,862.68
2018-08-11T03:50:06.920Z,862.70
2018-08-11T03:51:06.795Z,862.69
2018-08-11T03:52:06.670Z,862.66
2018-08-11T03:53:06.548Z,862.68
2018-08-11T03:54:06.424Z,862.68
2018-08-11T03:55:06.300Z,862.68
2018-08-11T03:56:06.177Z,862.69
2018-08-11T03:57:06.053Z,862.67
2018-08-11T03:58:05.934Z,862.69
2018-08-11T03:59:05.803Z,862.69
2018-08-11T04:00:05.683Z,862.67
2018-08-11T04:01:05.556Z,862.68
2018-08-11T04:02:05.435Z,862.66
2018-08-11T04:03:05.310Z,862.64
2018-08-11T04:04:05.190Z,862.62
2018-08-11T04:05:05.067Z,862.64
2018-08-11T04:06:04.943Z,862.62
2018-08-11T04:07:04.816Z,862.65
2018-08-11T04:08:04.691Z,862.64
2018-08-11T04:09:04.570Z,862.66
2018-08-11T04:10:04.444Z,862.64
2018-08-11T04:11:04.324Z,862.63
2018-08-11T04:12:04.196Z,862.62
2018-08-11T04:13:04.078Z,862.66
2018-08-11T04:14:03.948Z,862.69
2018-08-11T04:15:03.823Z,862.68
2018-08-11T04:16:03.700Z,862.68
2018-08-11T04:17:03.577Z,862.65
2018-08-11T04:18:03.453Z,862.69
2018-08-11T04:19:03.328Z,862.67
2018-08-11T04:20:03.203Z,862.70
2018-08-11T04:21:03.080Z,862.66
2018-08-11T04:22:02.956Z,862.68
2018-08-11T04:23:02.832Z,862.66
2018-08-11T04:24:02.711Z,862.66
2018-08-11T04:25:02.587Z,862.65
2018-08-11T04:26:02.465Z,862.65
2018-08-11T04:27:02.338Z,862.67
2018-08-11T04:28:02.214Z,862.68
2018-08-11T04:29:02.090Z,862.69
2018-08-11T04:30:01.970Z,862.69
2018-08-11T04:31:01.842Z,862.70
2018-08-11T04:32:01.720Z,862.72
2018-08-11T04:33:01.594Z,862.75
2018-08-11T04:34:01.473Z,862.75
2018-08-11T04:35:01.347Z,862.73
2018-08-11T04:36:01.221Z,862.74
2018-08-11T04:37:01.101Z,862.75
2018-08-11T04:38:00.978Z,862.73
2018-08-11T04:39:00.850Z,862.75
2018-08-11T04:40:00.729Z,862.74
2018-08-11T04:41:00.615Z,862.79
2018-08-11T04:42:00.538Z,862.78
2018-08-11T04:43:00.358Z,862.80
2018-08-11T04:44:00.233Z,862.82
2018-08-11T04:45:00.123Z,862.81
2018-08-11T04:45:59.988Z,862.81
2018-08-11T04:46:59.860Z,862.84
2018-08-11T04:47:59.737Z,862.84
2018-08-11T04:48:59.613Z,862.82
2018-08-11T04:49:59.492Z,862.82
2018-08-11T04:50:59.366Z,862.82
2018-08-11T04:51:59.242Z,862.82
2018-08-11T04:52:59.117Z,862.81
2018-08-11T04:53:58.995Z,862.83
2018-08-11T04:54:58.876Z,862.85
2018-08-11T04:55:58.746Z,862.83
2018-08-11T04:56:58.627Z,862.84
2018-08-11T04:57:58.501Z,862.86
2018-08-11T04:58:58.376Z,862.83
2018-08-11T04:59:58.261Z,862.90
2018-08-11T05:00:58.129Z,862.91
2018-08-11T05:01:58.007Z,862.91
2018-08-11T05:02:57.891Z,862.98
2018-08-11T05:03:57.759Z,862.99
2018-08-11T05:04:57.632Z,862.97
2018-08-11T05:05:57.511Z,862.97
2018-08-11T05:06:57.387Z,862.96
2018-08-11T05:07:57.263Z,862.95
2018-08-11T05:08:57.141Z,863.00
2018-08-11T05:09:57.020Z,862.99
2018-08-11T05:10:56.893Z,863.00
2018-08-11T05:11:56.772Z,862.97
2018-08-11T05:12:56.647Z,863.00
2018-08-11T05:13:56.522Z,862.99
2018-08-11T05:14:56.416Z,862.98
2018-08-11T05:15:56.274Z,862.99
2018-08-11T05:16:56.156Z,862.97
2018-08-11T05:17:56.030Z,862.98
2018-08-11T05:18:55.906Z,862.95
2018-08-11T05:19:55.824Z,863.00
2018-08-11T05:20:55.659Z,863.00
2018-08-11T05:21:55.567Z,862.99
2018-08-11T05:22:55.413Z,862.99
2018-08-11T05:23:55.290Z,862.98
2018-08-11T05:24:55.172Z,863.00
2018-08-11T05:25:55.045Z,863.00
2018-08-11T05:26:54.918Z,863.00
2018-08-11T05:27:54.801Z,863.02
2018-08-11T05:28:54.676Z,863.00
2018-08-11T05:29:54.550Z,862.99
2018-08-11T05:30:54.425Z,863.04
2018-08-11T05:31:54.305Z,863.05
2018-08-11T05:32:54.180Z,863.04
2018-08-11T05:33:54.056Z,863.05
2018-08-11T05:34:53.935Z,863.07
2018-08-11T05:35:53.810Z,863.06
2018-08-11T05:36:53.688Z,863.08
2018-08-11T05:37:53.565Z,863.14
2018-08-11T05:38:53.439Z,863.12
2018-08-11T05:39:53.320Z,863.16
2018-08-11T05:40:53.194Z,863.16
2018-08-11T05:41:53.069Z,863.13
2018-08-11T05:42:52.946Z,863.15
2018-08-11T05:43:52.827Z,863.14
2018-08-11T05:44:52.704Z,863.14
2018-08-11T05:45:52.576Z,863.12
2018-08-11T05:46:52.453Z,863.15
2018-08-11T05:47:52.331Z,863.14
2018-08-11T05:48:52.208Z,863.20
2018-08-11T05:49:52.089Z,863.16
2018-08-11T05:50:51.977Z,863.16
2018-08-11T05:51:51.835Z,863.20
2018-08-11T05:52:51.715Z,863.16
2018-08-11T05:53:51.594Z,863.14
2018-08-11T05:54:51.469Z,863.15
2018-08-11T05:55:51.343Z,863.18
2018-08-11T05:56:51.220Z,863.17
2018-08-11T05:57:51.095Z,863.15
2018-08-11T05:58:50.974Z,863.19
2018-08-11T05:59:50.851Z,863.20
2018-08-11T06:00:50.730Z,863.21
2018-08-11T06:01:50.607Z,863.25
2018-08-11T06:02:50.478Z,863.22
2018-08-11T06:03:50.364Z,863.23
2018-08-11T06:04:50.233Z,863.24
2018-08-11T06:05:50.108Z,863.29
2018-08-11T06:06:49.985Z,863.29
2018-08-11T06:07:49.863Z,863.31
2018-08-11T06:08:49.738Z,863.30
2018-08-11T06:09:49.617Z,863.31
2018-08-11T06:10:49.490Z,863.32
2018-08-11T06:11:49.369Z,863.33
2018-08-11T06:12:49.246Z,863.35
2018-08-11T06:13:49.125Z,863.33
2018-08-11T06:14:49.016Z,863.35
2018-08-11T06:15:48.874Z,863.34
2018-08-11T06:16:48.753Z,863.34
2018-08-11T06:17:48.627Z,863.32
2018-08-11T06:18:48.506Z,863.32
2018-08-11T06:19:48.386Z,863.36
2018-08-11T06:20:48.257Z,863.31
2018-08-11T06:21:48.137Z,863.35
2018-08-11T06:22:48.013Z,863.33
2018-08-11T06:23:47.921Z,863.33
2018-08-11T06:24:47.768Z,863.33
2018-08-11T06:25:47.648Z,863.32
2018-08-11T06:26:47.520Z,863.35
2018-08-11T06:27:47.397Z,863.36
2018-08-11T06:28:47.272Z,863.34
2018-08-11T06:29:47.151Z,863.35
2018-08-11T06:30:47.025Z,863.34
2018-08-11T06:31:46.954Z,863.36
2018-08-11T06:32:46.780Z,863.34
2018-08-11T06:33:46.659Z,863.31
2018-08-11T06:34:46.536Z,863.33
2018-08-11T06:35:46.425Z,863.33
2018-08-11T06:36:46.305Z,863.31
2018-08-11T06:37:46.515Z,863.32
2018-08-11T06:38:46.042Z,863.28
2018-08-11T06:39:45.918Z,863.30
2018-08-11T06:40:45.846Z,863.30
2018-08-11T06:41:45.675Z,863.30
2018-08-11T06:42:45.548Z,863.30
2018-08-11T06:43:45.428Z,863.32
2018-08-11T06:44:45.301Z,863.27
2018-08-11T06:45:45.177Z,863.30
2018-08-11T06:46:45.157Z,863.26
2018-08-11T06:47:44.931Z,863.28
2018-08-11T06:48:44.816Z,863.29
2018-08-11T06:49:44.688Z,863.28
2018-08-11T06:50:44.569Z,863.27
2018-08-11T06:51:44.443Z,863.30
2018-08-11T06:52:44.317Z,863.30
2018-08-11T06:53:44.195Z,863.26
2018-08-11T06:54:44.070Z,863.29
2018-08-11T06:55:43.952Z,863.32
2018-08-11T06:56:43.828Z,863.26
2018-08-11T06:57:43.702Z,863.27
2018-08-11T06:58:43.577Z,863.26
2018-08-11T06:59:43.456Z,863.26
2018-08-11T07:00:43.336Z,863.26
2018-08-11T07:01:43.212Z,863.30
2018-08-11T07:02:43.089Z,863.26
2018-08-11T07:03:42.967Z,863.26
2018-08-11T07:04:42.848Z,863.28
2018-08-11T07:05:42.720Z,863.25
2018-08-11T07:06:42.683Z,863.23
2018-08-11T07:07:42.524Z,863.21
2018-08-11T07:08:42.351Z,863.22
2018-08-11T07:09:42.235Z,863.23
2018-08-11T07:10:42.106Z,863.19
2018-08-11T07:11:41.984Z,863.21
2018-08-11T07:12:41.863Z,863.18
2018-08-11T07:13:41.745Z,863.16
2018-08-11T07:14:41.617Z,863.23
2018-08-11T07:15:41.493Z,863.20
2018-08-11T07:16:41.371Z,863.21
2018-08-11T07:17:41.249Z,863.22
2018-08-11T07:18:41.128Z,863.28
2018-08-11T07:19:41.009Z,863.25
2018-08-11T07:20:40.895Z,863.31
2018-08-11T07:21:40.765Z,863.23
2018-08-11T07:22:40.641Z,863.22
2018-08-11T07:23:40.518Z,863.23
2018-08-11T07:24:40.400Z,863.23
2018-08-11T07:25:40.279Z,863.20
2018-08-11T07:26:40.151Z,863.17
2018-08-11T07:27:40.031Z,863.21
2018-08-11T07:28:39.909Z,863.24
2018-08-11T07:29:39.787Z,863.24
2018-08-11T07:30:39.666Z,863.25
2018-08-11T07:31:39.547Z,863.22
2018-08-11T07:32:39.420Z,863.26
2018-08-11T07:33:39.301Z,863.21
2018-08-11T07:34:39.184Z,863.19
2018-08-11T07:35:39.059Z,863.21
2018-08-11T07:36:39.033Z,863.21
2018-08-11T07:37:38.815Z,863.18
2018-08-11T07:38:38.693Z,863.18
2018-08-11T07:39:38.574Z,863.16
2018-08-11T07:40:38.453Z,863.20
2018-08-11T07:41:38.335Z,863.17
2018-08-11T07:42:38.207Z,863.20
2018-08-11T07:43:38.088Z,863.21
2018-08-11T07:44:37.964Z,863.21
2018-08-11T07:45:37.842Z,863.20
2018-08-11T07:46:37.722Z,863.21
2018-08-11T07:47:37.730Z,863.21
2018-08-11T07:48:37.482Z,863.19
2018-08-11T07:49:37.361Z,863.21
2018-08-11T07:50:37.239Z,863.20
2018-08-11T07:51:37.116Z,863.23
2018-08-11T07:52:36.997Z,863.24
2018-08-11T07:53:36.875Z,863.24
2018-08-11T07:54:36.753Z,863.23
2018-08-11T07:55:36.630Z,863.21
2018-08-11T07:56:36.513Z,863.18
2018-08-11T07:57:36.392Z,863.20
2018-08-11T07:58:36.266Z,863.25
2018-08-11T07:59:36.145Z,863.23
2018-08-11T08:00:36.032Z,863.22
2018-08-11T08:01:35.919Z,863.19
2018-08-11T08:02:35.788Z,863.21
2018-08-11T08:03:35.661Z,863.23
2018-08-11T08:04:35.548Z,863.24
2018-08-11T08:05:35.433Z,863.23
2018-08-11T08:06:35.298Z,863.22
2018-08-11T08:07:35.178Z,863.24
2018-08-11T08:08:35.059Z,863.23
2018-08-11T08:09:34.936Z,863.22
2018-08-11T08:10:34.813Z,863.25
2018-08-11T08:11:34.693Z,863.26
2018-08-11T08:12:34.575Z,863.25
2018-08-11T08:13:34.518Z,863.28
2018-08-11T08:14:34.330Z,863.27
2018-08-11T08:15:34.211Z,863.29
2018-08-11T08:16:34.092Z,863.31
2018-08-11T08:17:33.977Z,863.32
2018-08-11T08:18:33.851Z,863.31
2018-08-11T08:19:33.730Z,863.32
2018-08-11T08:20:33.608Z,863.30
2018-08-11T08:21:33.492Z,863.28
2018-08-11T08:22:33.368Z,863.27
2018-08-11T08:23:33.253Z,863.30
2018-08-11T08:24:33.127Z,863.33
2018-08-11T08:25:33.010Z,863.34
2018-08-11T08:26:33.010Z,863.32
2018-08-11T08:27:32.776Z,863.27
2018-08-11T08:28:32.647Z,863.26
2018-08-11T08:29:32.526Z,863.29
2018-08-11T08:30:32.406Z,863.30
2018-08-11T08:31:32.286Z,863.29
2018-08-11T08:32:32.167Z,863.26
2018-08-11T08:33:32.044Z,863.29
2018-08-11T08:34:31.925Z,863.26
2018-08-11T08:35:31.806Z,863.29
2018-08-11T08:36:31.686Z,863.24
2018-08-11T08:37:31.568Z,863.26
2018-08-11T08:38:32.973Z,863.27
2018-08-11T08:39:31.329Z,863.23
2018-08-11T08:40:31.205Z,863.23
2018-08-11T08:41:31.089Z,863.25
2018-08-11T08:42:32.069Z,863.28
2018-08-11T08:43:30.845Z,863.24
2018-08-11T08:44:30.725Z,863.29
2018-08-11T08:45:30.608Z,863.28
2018-08-11T08:46:30.487Z,863.31
2018-08-11T08:47:30.442Z,863.30
2018-08-11T08:48:30.247Z,863.29
2018-08-11T08:49:30.126Z,863.26
2018-08-11T08:50:30.006Z,863.27
2018-08-11T08:51:29.885Z,863.22
2018-08-11T08:52:29.767Z,863.24
2018-08-11T08:53:29.651Z,863.22
2018-08-11T08:54:29.532Z,863.24
2018-08-11T08:55:29.408Z,863.23
2018-08-11T08:56:29.290Z,863.25
2018-08-11T08:57:29.168Z,863.19
2018-08-11T08:58:29.049Z,863.18
2018-08-11T08:59:28.926Z,863.26
2018-08-11T09:00:28.807Z,863.20
2018-08-11T09:01:28.687Z,863.20
2018-08-11T09:02:28.567Z,863.19
2018-08-11T09:03:28.449Z,863.16
2018-08-11T09:04:28.327Z,863.18
2018-08-11T09:05:28.207Z,863.18
2018-08-11T09:06:28.088Z,863.18
2018-08-11T09:07:27.968Z,863.16
2018-08-11T09:08:27.852Z,863.14
2018-08-11T09:09:27.729Z,863.14
2018-08-11T09:10:27.609Z,863.14
2018-08-11T09:11:27.487Z,863.13
2018-08-11T09:12:27.369Z,863.12
2018-08-11T09:13:27.250Z,863.12
2018-08-11T09:14:27.131Z,863.10
2018-08-11T09:15:27.007Z,863.12
2018-08-11T09:16:26.890Z,863.16
2018-08-11T09:17:26.768Z,863.13
2018-08-11T09:18:26.650Z,863.12
2018-08-11T09:19:26.583Z,863.09
2018-08-11T09:20:26.410Z,863.08
2018-08-11T09:21:26.291Z,863.10
2018-08-11T09:22:26.414Z,863.08
2018-08-11T09:23:26.622Z,863.06
2018-08-11T09:24:25.931Z,863.03
2018-08-11T09:25:25.810Z,863.04
2018-08-11T09:26:25.691Z,863.02
2018-08-11T09:27:25.842Z,863.01
2018-08-11T09:28:33.433Z,863.00
2018-08-11T09:30:18.159Z,863.02
2018-08-11T09:31:18.075Z,862.95
2018-08-11T09:33:10.863Z,862.93
2018-08-11T09:34:10.546Z,862.92
2018-08-11T09:36:03.295Z,862.85
2018-08-11T09:37:03.101Z,862.85
2018-08-11T09:38:55.811Z,862.83
2018-08-11T09:39:55.676Z,862.82
2018-08-11T09:41:48.361Z,862.81
2018-08-11T09:42:48.200Z,862.83
2018-08-11T09:44:40.907Z,862.73
2018-08-11T09:45:40.769Z,862.72
2018-08-11T09:47:34.273Z,862.70
2018-08-11T09:48:34.146Z,862.67
2018-08-11T09:50:26.853Z,862.64
2018-08-11T09:51:26.694Z,862.67
2018-08-11T09:53:19.371Z,862.67
2018-08-11T09:54:19.245Z,862.65
2018-08-11T09:56:11.942Z,862.63
2018-08-11T09:57:11.785Z,862.63
2018-08-11T09:59:04.478Z,862.57
2018-08-11T10:00:04.347Z,862.61
2018-08-11T10:02:12.338Z,862.62
2018-08-11T10:03:11.975Z,862.63
2018-08-11T10:04:11.855Z,862.62
2018-08-11T10:05:11.872Z,862.64
2018-08-11T10:06:11.617Z,862.64
2018-08-11T10:07:11.504Z,862.63
2018-08-11T10:08:11.379Z,862.61
2018-08-11T10:09:11.260Z,862.61
2018-08-11T10:10:11.140Z,862.60
2018-08-11T10:11:11.022Z,862.63
2018-08-11T10:12:10.904Z,862.62
2018-08-11T10:13:10.782Z,862.62
2018-08-11T10:14:10.665Z,862.62
2018-08-11T10:15:10.545Z,862.58
2018-08-11T10:16:10.429Z,862.59
2018-08-11T10:17:10.310Z,862.56
2018-08-11T10:18:10.197Z,862.54
2018-08-11T10:19:10.070Z,862.56
2018-08-11T10:20:09.950Z,862.50
2018-08-11T10:21:09.834Z,862.48
2018-08-11T10:22:09.715Z,862.52
2018-08-11T10:23:09.594Z,862.48
2018-08-11T10:24:09.475Z,862.48
2018-08-11T10:25:09.355Z,862.47
2018-08-11T10:26:09.237Z,862.44
2018-08-11T10:27:09.117Z,862.43
2018-08-11T10:28:08.998Z,862.44
2018-08-11T10:29:08.879Z,862.39
2018-08-11T10:30:08.762Z,862.38
2018-08-11T10:31:08.644Z,862.39
2018-08-11T10:32:08.521Z,862.43
2018-08-11T10:33:08.540Z,862.39
2018-08-11T10:34:08.286Z,862.40
2018-08-11T10:35:08.166Z,862.38
2018-08-11T10:36:08.046Z,862.38
2018-08-11T10:37:07.932Z,862.33
2018-08-11T10:38:07.810Z,862.31
2018-08-11T10:39:07.691Z,862.31
2018-08-11T10:40:07.580Z,862.35
2018-08-11T10:41:07.456Z,862.29
2018-08-11T10:42:07.341Z,862.30
2018-08-11T10:43:07.221Z,862.26
2018-08-11T10:44:07.101Z,862.30
2018-08-11T10:45:06.982Z,862.32
2018-08-11T10:46:06.864Z,862.31
2018-08-11T10:47:06.759Z,862.33
2018-08-11T10:48:06.630Z,862.28
2018-08-11T10:49:06.510Z,862.35
2018-08-11T10:50:06.395Z,862.28
2018-08-11T10:51:06.725Z,862.31
2018-08-11T10:52:06.161Z,862.28
2018-08-11T10:53:06.040Z,862.27
2018-08-11T10:54:05.924Z,862.26
2018-08-11T10:55:05.806Z,862.27
2018-08-11T10:56:05.768Z,862.25
2018-08-11T10:57:05.590Z,862.23
2018-08-11T10:58:05.453Z,862.23
2018-08-11T10:59:05.335Z,862.22
2018-08-11T11:00:05.217Z,862.19
2018-08-11T11:01:05.106Z,862.19
2018-08-11T11:02:04.984Z,862.17
2018-08-11T11:03:04.865Z,862.17
2018-08-11T11:04:04.812Z,862.16
2018-08-11T11:05:04.630Z,862.14
2018-08-11T11:06:04.513Z,862.15
2018-08-11T11:07:04.394Z,862.13
2018-08-11T11:08:04.280Z,862.13
2018-08-11T11:09:04.160Z,862.12
2018-08-11T11:10:04.072Z,862.12
2018-08-11T11:11:03.928Z,862.10
2018-08-11T11:12:03.810Z,862.06
2018-08-11T11:13:03.697Z,862.07
2018-08-11T11:14:03.861Z,862.11
2018-08-11T11:15:03.461Z,862.11
2018-08-11T11:16:03.341Z,862.13
2018-08-11T11:17:03.225Z,862.11
2018-08-11T11:18:03.109Z,862.09
2018-08-11T11:19:02.994Z,862.06
2018-08-11T11:20:02.873Z,862.00
2018-08-11T11:21:02.760Z,861.99
2018-08-11T11:22:02.647Z,861.95
2018-08-11T11:23:02.535Z,861.94
2018-08-11T11:24:02.415Z,861.94
2018-08-11T11:25:02.298Z,861.97
2018-08-11T11:26:02.179Z,861.94
2018-08-11T11:27:02.077Z,861.93
2018-08-11T11:28:01.947Z,861.91
2018-08-11T11:29:01.840Z,861.92
2018-08-11T11:30:01.720Z,861.89
2018-08-11T11:31:01.602Z,861.91
2018-08-11T11:32:01.487Z,861.92
2018-08-11T11:33:01.371Z,861.90
2018-08-11T11:34:01.255Z,861.93
2018-08-11T11:35:01.262Z,861.88
2018-08-11T11:36:01.023Z,861.90
2018-08-11T11:37:00.910Z,861.93
2018-08-11T11:38:00.796Z,861.89
2018-08-11T11:39:00.680Z,861.87
2018-08-11T11:40:00.562Z,861.88
2018-08-11T11:41:00.450Z,861.85
2018-08-11T11:42:00.335Z,861.83
2018-08-11T11:43:00.217Z,861.82
2018-08-11T11:44:00.105Z,861.85
2018-08-11T11:44:59.990Z,861.82
2018-08-11T11:45:59.879Z,861.84
2018-08-11T11:46:59.757Z,861.84
2018-08-11T11:47:59.642Z,861.85
2018-08-11T11:48:59.527Z,861.87
2018-08-11T11:49:59.413Z,861.84
2018-08-11T11:50:59.295Z,861.81
2018-08-11T11:51:59.181Z,861.84
2018-08-11T11:52:59.067Z,861.83
2018-08-11T11:53:58.951Z,861.77
2018-08-11T11:54:58.835Z,861.78
2018-08-11T11:55:58.724Z,861.76
2018-08-11T11:56:58.601Z,861.73
2018-08-11T11:57:58.488Z,861.75
2018-08-11T11:58:58.372Z,861.74
2018-08-11T11:59:58.274Z,861.73
2018-08-11T12:00:58.144Z,861.74
2018-08-11T12:01:58.079Z,861.72
2018-08-11T12:02:57.912Z,861.70
2018-08-11T12:03:57.797Z,861.69
2018-08-11T12:04:57.680Z,861.69
2018-08-11T12:05:57.628Z,861.67
2018-08-11T12:06:57.449Z,861.69
2018-08-11T12:07:57.333Z,861.71
2018-08-11T12:08:57.222Z,861.67
2018-08-11T12:09:57.105Z,861.69
2018-08-11T12:10:56.987Z,861.69
2018-08-11T12:11:56.869Z,861.70
2018-08-11T12:12:56.754Z,861.66
2018-08-11T12:13:56.678Z,861.66
2018-08-11T12:14:56.523Z,861.65
2018-08-11T12:15:56.439Z,861.63
2018-08-11T12:16:56.294Z,861.64
2018-08-11T12:17:56.176Z,861.62
2018-08-11T12:18:56.063Z,861.61
2018-08-11T12:19:55.949Z,861.60
2018-08-11T12:20:55.859Z,861.62
2018-08-11T12:21:55.724Z,861.62
2018-08-11T12:22:55.602Z,861.63
2018-08-11T12:23:55.489Z,861.63
2018-08-11T12:24:55.372Z,861.59
2018-08-11T12:25:55.257Z,861.58
2018-08-11T12:26:55.143Z,861.55
2018-08-11T12:27:55.030Z,861.54
2018-08-11T12:28:54.915Z,861.52
2018-08-11T12:29:54.798Z,861.52
2018-08-11T12:30:54.682Z,861.53
2018-08-11T12:31:54.571Z,861.53
2018-08-11T12:32:54.455Z,861.50
2018-08-11T12:33:54.339Z,861.53
2018-08-11T12:34:54.223Z,861.53
2018-08-11T12:35:54.111Z,861.54
2018-08-11T12:36:53.995Z,861.54
2018-08-11T12:37:53.936Z,861.52